Time;durP1;ratioP1;P1;durP2;ratioP2;P2;SDS_P1;SDS_P2;PMS_P1;PMS_P2;Temp;Humidity;BMP_temperature;BMP_pressure;BME280_temperature;BME280_humidity;BME280_pressure;Samples;Min_cycle;Max_cycle;Signal;HPM_P1;HPM_P2
2021/05/21 00:00:35;;;;;;;2.83;1.07;;;13.50;96.60;;;;;;5090691;28;20315;-56
2021/05/21 00:03:02;;;;;;;2.67;1.00;;;13.50;96.30;;;;;;5090973;28;20675;-56
2021/05/21 00:05:28;;;;;;;0.87;0.87;;;13.60;96.20;;;;;;5090604;28;20213;-58
2021/05/21 00:07:55;;;;;;;1.37;0.77;;;13.70;95.90;;;;;;5090588;28;20204;-57
2021/05/21 00:10:22;;;;;;;1.90;1.07;;;13.70;95.70;;;;;;5091431;28;20262;-57
2021/05/21 00:12:48;;;;;;;2.57;0.90;;;13.70;95.40;;;;;;5090940;28;20227;-57
2021/05/21 00:15:15;;;;;;;0.80;0.80;;;13.80;95.20;;;;;;5090567;28;20204;-57
2021/05/21 00:17:42;;;;;;;1.33;0.90;;;13.80;95.10;;;;;;5090987;28;20207;-56
2021/05/21 00:20:09;;;;;;;1.17;0.77;;;13.80;94.80;;;;;;5091776;28;20220;-57
2021/05/21 00:22:35;;;;;;;1.87;1.20;;;13.90;94.70;;;;;;5094081;28;20219;-57
2021/05/21 00:25:02;;;;;;;1.43;1.17;;;13.90;94.70;;;;;;5094184;28;20262;-57
2021/05/21 00:27:29;;;;;;;1.80;1.13;;;13.90;94.50;;;;;;5094262;28;20566;-62
2021/05/21 00:29:55;;;;;;;1.20;0.90;;;13.90;94.40;;;;;;5093937;28;20231;-57
2021/05/21 00:32:21;;;;;;;2.03;1.60;;;13.90;94.30;;;;;;5093917;28;20207;-56
2021/05/21 00:34:47;;;;;;;1.70;1.10;;;13.90;94.10;;;;;;5093572;28;20208;-57
2021/05/21 00:37:13;;;;;;;3.23;0.83;;;13.90;94.10;;;;;;5093949;28;20239;-57
2021/05/21 00:39:39;;;;;;;1.53;1.17;;;14.00;93.90;;;;;;5093472;28;20254;-57
2021/05/21 00:42:08;;;;;;;1.47;1.10;;;14.10;94.10;;;;;;5093598;28;20587;-57
2021/05/21 00:44:34;;;;;;;1.90;1.10;;;14.10;93.70;;;;;;5093631;28;20389;-57
2021/05/21 00:47:01;;;;;;;1.87;1.17;;;14.10;93.50;;;;;;5093727;28;20212;-57
2021/05/21 00:49:27;;;;;;;2.37;0.90;;;14.10;93.40;;;;;;5093358;28;20232;-57
2021/05/21 00:51:53;;;;;;;2.00;1.00;;;14.10;93.40;;;;;;5093699;28;20208;-57
2021/05/21 00:54:20;;;;;;;2.37;1.10;;;14.10;93.40;;;;;;5093519;28;20200;-57
2021/05/21 00:56:47;;;;;;;2.13;0.90;;;14.10;93.40;;;;;;5093586;28;20201;-57
2021/05/21 00:59:16;;;;;;;2.33;1.00;;;14.20;93.50;;;;;;5093060;28;20682;-57
2021/05/21 01:01:44;;;;;;;2.40;0.93;;;14.20;93.50;;;;;;5093538;28;20308;-58
2021/05/21 01:04:10;;;;;;;1.80;0.90;;;14.20;93.50;;;;;;5093035;28;20223;-57
2021/05/21 01:06:36;;;;;;;2.73;1.20;;;14.20;93.50;;;;;;5093631;28;20208;-57
2021/05/21 01:09:03;;;;;;;1.23;0.90;;;14.10;93.40;;;;;;5093222;28;20247;-57
2021/05/21 01:11:29;;;;;;;0.80;0.80;;;14.10;93.40;;;;;;5093300;28;20219;-57
2021/05/21 01:13:55;;;;;;;1.67;1.20;;;14.10;93.30;;;;;;5093072;28;20196;-57
2021/05/21 01:16:22;;;;;;;1.90;1.33;;;14.10;93.20;;;;;;5093379;28;20200;-58
2021/05/21 01:18:48;;;;;;;0.80;0.80;;;14.10;93.20;;;;;;5092994;28;20265;-57
2021/05/21 01:21:15;;;;;;;1.83;0.87;;;14.20;93.20;;;;;;5093355;28;20257;-57
2021/05/21 01:23:41;;;;;;;1.70;0.90;;;14.20;93.10;;;;;;5093044;28;20224;-58
2021/05/21 01:26:08;;;;;;;1.80;1.37;;;14.20;93.20;;;;;;5093091;28;20242;-57
2021/05/21 01:28:34;;;;;;;1.20;1.10;;;14.20;93.00;;;;;;5092940;28;20228;-57
2021/05/21 01:31:00;;;;;;;1.37;1.10;;;14.10;93.00;;;;;;5092668;28;20204;-57
2021/05/21 01:33:26;;;;;;;1.43;1.03;;;14.20;93.00;;;;;;5092317;28;20212;-57
2021/05/21 01:35:54;;;;;;;2.10;1.20;;;14.20;93.00;;;;;;5092823;28;20234;-57
2021/05/21 01:38:22;;;;;;;1.20;1.00;;;14.20;93.20;;;;;;5092473;28;20204;-57
2021/05/21 01:40:49;;;;;;;2.70;0.80;;;14.10;93.30;;;;;;5092657;28;20691;-57
2021/05/21 01:43:16;;;;;;;2.20;0.93;;;14.20;93.40;;;;;;5092426;28;20722;-56
2021/05/21 01:45:43;;;;;;;3.10;1.00;;;14.10;93.30;;;;;;5092439;28;20203;-58
2021/05/21 01:48:11;;;;;;;1.53;1.00;;;14.10;93.30;;;;;;5092621;28;20208;-57
2021/05/21 01:50:37;;;;;;;1.47;1.10;;;14.10;93.30;;;;;;5092587;28;20220;-57
2021/05/21 01:53:04;;;;;;;1.27;0.83;;;14.20;93.40;;;;;;5092330;28;20205;-57
2021/05/21 01:55:31;;;;;;;1.93;1.00;;;14.10;93.40;;;;;;5092239;28;20204;-57
2021/05/21 01:57:57;;;;;;;2.20;1.27;;;14.10;93.30;;;;;;5092029;28;20699;-57
2021/05/21 02:00:23;;;;;;;3.47;1.03;;;14.10;93.30;;;;;;5092023;28;20250;-57
2021/05/21 02:02:49;;;;;;;1.70;1.00;;;14.00;93.20;;;;;;5092248;28;20204;-56
2021/05/21 02:05:15;;;;;;;1.93;1.00;;;14.00;93.20;;;;;;5092067;28;20215;-57
2021/05/21 02:07:41;;;;;;;1.97;1.10;;;14.00;93.40;;;;;;5092141;28;20204;-56
2021/05/21 02:10:09;;;;;;;2.87;1.23;;;14.00;93.40;;;;;;5092128;28;20242;-57
2021/05/21 02:12:37;;;;;;;1.53;0.90;;;14.00;93.40;;;;;;5092239;28;20219;-57
2021/05/21 02:15:06;;;;;;;3.00;1.10;;;13.90;93.50;;;;;;5091651;28;20579;-56
2021/05/21 02:17:33;;;;;;;1.50;1.03;;;13.90;93.70;;;;;;5092127;28;20204;-57
2021/05/21 02:20:01;;;;;;;1.77;1.03;;;13.90;93.70;;;;;;5091818;28;20230;-57
2021/05/21 02:22:29;;;;;;;2.13;1.70;;;13.90;93.80;;;;;;5091885;28;20253;-59
2021/05/21 02:24:56;;;;;;;3.73;2.40;;;13.90;93.50;;;;;;5091750;28;20232;-57
2021/05/21 02:27:23;;;;;;;1.90;1.10;;;13.90;93.50;;;;;;5091792;28;20204;-56
2021/05/21 02:29:50;;;;;;;1.33;0.80;;;13.90;93.30;;;;;;5091971;28;20415;-56
2021/05/21 02:32:16;;;;;;;2.83;0.87;;;13.90;93.10;;;;;;5092111;28;20203;-57
2021/05/21 02:34:43;;;;;;;1.83;1.20;;;13.90;93.10;;;;;;5092010;28;20211;-57
2021/05/21 02:37:09;;;;;;;2.43;1.20;;;13.80;93.10;;;;;;5091836;28;20229;-57
2021/05/21 02:39:36;;;;;;;1.20;0.90;;;13.80;93.00;;;;;;5091453;28;20240;-58
2021/05/21 02:42:03;;;;;;;1.70;0.97;;;13.80;93.10;;;;;;5091452;28;20208;-56
2021/05/21 02:44:29;;;;;;;1.70;0.70;;;13.80;92.90;;;;;;5091343;28;20285;-57
2021/05/21 02:46:56;;;;;;;0.80;0.73;;;13.90;92.90;;;;;;5091376;28;20698;-57
2021/05/21 02:49:22;;;;;;;2.00;0.70;;;13.90;92.90;;;;;;5091296;28;20220;-57
2021/05/21 02:51:50;;;;;;;1.20;0.80;;;13.90;92.80;;;;;;5091191;28;20694;-56
2021/05/21 02:54:16;;;;;;;0.93;0.70;;;13.90;92.80;;;;;;5091609;28;20204;-56
2021/05/21 02:56:43;;;;;;;1.17;0.80;;;13.90;92.70;;;;;;5091081;28;20235;-56
2021/05/21 02:59:09;;;;;;;1.27;0.80;;;13.80;92.60;;;;;;5091254;28;20247;-56
2021/05/21 03:01:35;;;;;;;1.77;0.90;;;13.90;92.50;;;;;;5091308;28;20211;-56
2021/05/21 03:04:03;;;;;;;1.03;0.80;;;13.90;92.40;;;;;;5090973;28;20223;-56
2021/05/21 03:06:30;;;;;;;1.97;0.70;;;13.90;92.30;;;;;;5091211;28;20200;-56
2021/05/21 03:08:56;;;;;;;3.57;1.23;;;13.90;92.20;;;;;;5090966;28;20224;-57
2021/05/21 03:11:22;;;;;;;1.63;0.90;;;13.90;92.20;;;;;;5091197;28;20204;-57
2021/05/21 03:13:48;;;;;;;3.03;0.83;;;13.90;92.20;;;;;;5091447;28;20204;-57
2021/05/21 03:16:15;;;;;;;1.53;0.80;;;13.90;92.10;;;;;;5091401;28;20668;-56
2021/05/21 03:18:41;;;;;;;2.53;0.97;;;13.90;92.10;;;;;;5091122;28;20707;-56
2021/05/21 03:21:08;;;;;;;1.10;0.60;;;13.80;92.00;;;;;;5091386;28;20208;-57
2021/05/21 03:23:35;;;;;;;1.23;0.70;;;13.80;92.10;;;;;;5090898;28;20220;-57
2021/05/21 03:26:01;;;;;;;3.03;0.80;;;13.90;91.90;;;;;;5091091;28;20215;-57
2021/05/21 03:28:27;;;;;;;1.13;0.80;;;13.90;91.80;;;;;;5091055;28;20580;-55
2021/05/21 03:30:53;;;;;;;1.37;0.80;;;13.90;91.70;;;;;;5090974;28;20208;-57
2021/05/21 03:33:20;;;;;;;2.10;1.07;;;13.90;91.50;;;;;;5091118;28;20597;-57
2021/05/21 03:35:46;;;;;;;1.27;0.70;;;13.90;91.40;;;;;;5090995;28;20663;-57
2021/05/21 03:38:14;;;;;;;1.53;0.80;;;13.90;91.30;;;;;;5090813;28;20200;-56
2021/05/21 03:40:41;;;;;;;2.20;0.77;;;14.00;91.10;;;;;;5091476;28;20223;-57
2021/05/21 03:43:08;;;;;;;1.80;1.00;;;14.00;91.00;;;;;;5091234;28;20224;-57
2021/05/21 03:45:35;;;;;;;3.30;1.17;;;14.10;90.90;;;;;;5091098;28;20243;-57
2021/05/21 03:48:02;;;;;;;2.50;1.37;;;14.10;90.70;;;;;;5091614;28;20204;-56
2021/05/21 03:50:29;;;;;;;1.30;0.90;;;14.10;90.60;;;;;;5091309;28;20228;-56
2021/05/21 03:52:55;;;;;;;3.23;1.10;;;14.30;90.60;;;;;;5090940;28;20223;-56
2021/05/21 03:55:22;;;;;;;1.73;1.10;;;14.40;90.30;;;;;;5093227;28;20205;-56
2021/05/21 03:57:49;;;;;;;1.93;1.03;;;14.40;90.20;;;;;;5094468;28;20707;-57
2021/05/21 04:00:17;;;;;;;1.23;0.80;;;14.40;90.20;;;;;;5094609;28;20224;-56
2021/05/21 04:02:45;;;;;;;2.27;1.50;;;14.40;90.10;;;;;;5094391;28;20204;-57
2021/05/21 04:05:12;;;;;;;0.90;0.77;;;14.40;89.90;;;;;;5094195;28;20621;-58
2021/05/21 04:07:38;;;;;;;1.67;0.97;;;14.40;89.70;;;;;;5094451;28;20212;-57
2021/05/21 04:10:06;;;;;;;1.50;0.93;;;14.40;89.70;;;;;;5094415;28;20220;-57
2021/05/21 04:12:33;;;;;;;2.87;1.00;;;14.40;89.50;;;;;;5094498;28;20200;-56
2021/05/21 04:14:59;;;;;;;2.13;1.00;;;14.50;89.40;;;;;;5094332;28;20207;-56
2021/05/21 04:17:25;;;;;;;1.53;0.90;;;14.50;88.90;;;;;;5094365;28;20204;-56
2021/05/21 04:19:52;;;;;;;2.20;0.93;;;14.60;88.70;;;;;;5093733;28;20220;-57
2021/05/21 04:22:18;;;;;;;1.57;0.90;;;14.70;88.30;;;;;;5094101;28;20208;-56
2021/05/21 04:24:45;;;;;;;1.00;0.83;;;14.80;88.00;;;;;;5093959;28;20230;-56
2021/05/21 04:27:11;;;;;;;1.17;0.80;;;14.90;87.50;;;;;;5094011;28;20265;-56
2021/05/21 04:29:38;;;;;;;3.07;1.00;;;15.00;87.20;;;;;;5093844;28;20247;-58
2021/05/21 04:32:06;;;;;;;2.27;1.07;;;15.10;87.00;;;;;;5094111;28;20204;-56
2021/05/21 04:34:32;;;;;;;1.63;1.07;;;15.00;86.60;;;;;;5093757;28;20287;-56
2021/05/21 04:36:58;;;;;;;3.10;1.33;;;15.10;86.40;;;;;;5094071;28;20208;-57
2021/05/21 04:39:25;;;;;;;5.23;1.27;;;15.20;85.80;;;;;;5093275;28;20739;-57
2021/05/21 04:41:51;;;;;;;1.07;0.70;;;15.30;85.30;;;;;;5093783;28;20295;-57
2021/05/21 04:44:17;;;;;;;1.50;0.97;;;15.40;85.00;;;;;;5093394;28;20231;-57
2021/05/21 04:46:44;;;;;;;1.83;1.20;;;15.40;84.70;;;;;;5093330;28;20261;-57
2021/05/21 04:49:10;;;;;;;1.90;1.30;;;15.60;84.40;;;;;;5093276;28;20224;-57
2021/05/21 04:51:37;;;;;;;1.13;0.90;;;15.60;83.70;;;;;;5093820;28;20204;-57
2021/05/21 04:54:04;;;;;;;3.07;1.53;;;15.70;83.60;;;;;;5093481;28;20219;-56
2021/05/21 04:56:31;;;;;;;2.93;1.10;;;15.70;83.30;;;;;;5093724;28;20203;-56
2021/05/21 04:58:57;;;;;;;1.10;0.73;;;15.80;83.20;;;;;;5093276;28;20232;-57
2021/05/21 05:01:24;;;;;;;2.90;0.90;;;15.80;82.90;;;;;;5093269;28;20208;-57
2021/05/21 05:03:51;;;;;;;1.40;0.83;;;15.90;82.80;;;;;;5092936;28;20216;-57
2021/05/21 05:06:17;;;;;;;1.33;0.93;;;16.10;82.50;;;;;;5092126;28;20209;-57
2021/05/21 05:08:43;;;;;;;2.83;1.40;;;16.20;82.20;;;;;;5093190;28;20224;-57
2021/05/21 05:11:09;;;;;;;1.43;1.10;;;16.30;81.40;;;;;;5093235;28;20580;-56
2021/05/21 05:13:35;;;;;;;2.57;0.93;;;16.40;81.30;;;;;;5093035;28;20211;-56
2021/05/21 05:16:02;;;;;;;3.03;1.13;;;16.50;80.80;;;;;;5093013;28;20212;-56
2021/05/21 05:18:28;;;;;;;3.33;1.37;;;16.60;80.40;;;;;;5092919;28;20208;-57
2021/05/21 05:20:55;;;;;;;1.50;1.00;;;16.70;80.10;;;;;;5092847;28;20679;-56
2021/05/21 05:23:21;;;;;;;1.97;1.13;;;16.80;79.70;;;;;;5092953;28;20319;-55
2021/05/21 05:25:48;;;;;;;3.50;1.70;;;16.90;79.40;;;;;;5093018;28;20243;-56
2021/05/21 05:28:16;;;;;;;2.97;1.10;;;17.00;78.60;;;;;;5092732;28;20357;-56
2021/05/21 05:30:42;;;;;;;2.53;1.30;;;17.20;78.00;;;;;;5092567;28;20208;-56
2021/05/21 05:33:11;;;;;;;2.90;1.70;;;17.40;77.70;;;;;;5092960;28;20529;-57
2021/05/21 05:35:37;;;;;;;4.43;1.67;;;17.60;76.80;;;;;;5092851;28;20227;-57
2021/05/21 05:38:04;;;;;;;2.17;1.30;;;17.70;76.30;;;;;;5092734;28;20200;-57
2021/05/21 05:40:32;;;;;;;3.37;1.90;;;17.90;75.40;;;;;;5092522;28;20267;-57
2021/05/21 05:42:59;;;;;;;2.85;1.35;;;18.10;74.40;;;;;;5092447;28;20481;-57
2021/05/21 05:45:25;;;;;;;1.43;0.90;;;18.20;74.00;;;;;;5092514;28;20208;-56
2021/05/21 05:47:51;;;;;;;1.10;0.93;;;18.30;73.50;;;;;;5092756;28;20211;-57
2021/05/21 05:50:17;;;;;;;3.53;1.52;;;18.30;73.40;;;;;;5092611;28;20235;-57
2021/05/21 05:52:44;;;;;;;1.70;0.90;;;18.30;73.20;;;;;;5092655;28;20245;-57
2021/05/21 05:55:11;;;;;;;4.57;2.80;;;18.30;73.10;;;;;;5092466;28;20201;-56
2021/05/21 05:57:38;;;;;;;2.63;1.20;;;18.40;72.90;;;;;;5092414;28;20257;-57
2021/05/21 06:00:05;;;;;;;0.80;0.63;;;18.40;72.40;;;;;;5092116;28;20224;-57
2021/05/21 06:02:31;;;;;;;1.80;1.00;;;18.50;72.10;;;;;;5092893;28;20215;-57
2021/05/21 06:05:02;;;;;;;1.13;0.90;;;18.50;72.10;;;;;;5092117;28;20228;-57
2021/05/21 06:07:28;;;;;;;1.93;1.00;;;18.50;71.80;;;;;;5092628;28;20208;-57
2021/05/21 06:09:54;;;;;;;1.13;0.60;;;18.60;71.90;;;;;;5092132;28;20228;-57
2021/05/21 06:12:21;;;;;;;2.00;0.97;;;18.60;71.60;;;;;;5092242;28;20212;-57
2021/05/21 06:14:48;;;;;;;1.80;1.02;;;18.70;71.50;;;;;;5091865;28;20212;-57
2021/05/21 06:17:17;;;;;;;2.33;0.70;;;18.90;71.10;;;;;;5091879;28;20211;-57
2021/05/21 06:19:43;;;;;;;0.90;0.68;;;18.90;71.00;;;;;;5092050;28;20232;-57
2021/05/21 06:22:09;;;;;;;3.78;0.88;;;18.90;70.80;;;;;;5092072;28;20205;-57
2021/05/21 06:24:38;;;;;;;2.88;1.30;;;19.00;70.50;;;;;;5091897;28;20235;-59
2021/05/21 06:27:19;;;;;;;6.82;3.42;;;19.20;70.30;;;;;;5091959;28;20200;-57
2021/05/21 06:29:46;;;;;;;1.80;0.70;;;19.30;70.00;;;;;;5091499;28;20607;-57
2021/05/21 06:32:13;;;;;;;3.60;1.02;;;19.40;69.80;;;;;;5092269;28;20243;-58
2021/05/21 06:34:39;;;;;;;48.10;38.87;;;19.50;69.40;;;;;;5091596;28;20205;-58
2021/05/21 06:37:05;;;;;;;1.25;1.15;;;19.60;69.00;;;;;;5091778;28;20212;-57
2021/05/21 06:39:31;;;;;;;2.17;1.10;;;19.70;69.10;;;;;;5091386;28;20235;-57
2021/05/21 06:41:58;;;;;;;4.05;0.90;;;19.70;69.10;;;;;;5091649;28;20806;-57
2021/05/21 06:44:24;;;;;;;1.85;0.80;;;19.80;69.30;;;;;;5091715;28;20224;-58
2021/05/21 06:46:51;;;;;;;1.48;1.05;;;19.90;68.70;;;;;;5091604;28;20200;-58
2021/05/21 06:49:17;;;;;;;1.17;0.80;;;19.90;68.20;;;;;;5091603;28;20243;-57
2021/05/21 06:51:43;;;;;;;0.93;0.68;;;19.90;68.50;;;;;;5091301;28;20200;-57
2021/05/21 06:54:10;;;;;;;2.35;0.82;;;19.80;68.40;;;;;;5091367;28;20597;-57
2021/05/21 06:56:36;;;;;;;1.10;0.70;;;19.70;69.10;;;;;;5091652;28;20250;-57
2021/05/21 06:59:03;;;;;;;3.95;0.95;;;19.60;69.60;;;;;;5091028;28;20224;-57
2021/05/21 07:01:30;;;;;;;2.33;0.98;;;19.50;69.70;;;;;;5091455;28;20644;-57
2021/05/21 07:03:58;;;;;;;2.25;0.90;;;19.60;70.10;;;;;;5091736;28;20269;-57
2021/05/21 07:06:24;;;;;;;0.90;0.70;;;19.50;69.30;;;;;;5091270;28;20212;-65
2021/05/21 07:08:50;;;;;;;3.97;0.90;;;19.60;69.30;;;;;;5070382;28;20236;-58
2021/05/21 07:11:17;;;;;;;1.15;0.90;;;19.70;69.10;;;;;;5071645;28;20631;-59
2021/05/21 07:13:43;;;;;;;1.85;0.90;;;19.70;69.10;;;;;;5071413;28;20204;-59
2021/05/21 07:16:09;;;;;;;1.20;0.90;;;19.70;68.80;;;;;;5071299;28;20212;-59
2021/05/21 07:18:36;;;;;;;1.58;0.93;;;19.70;68.70;;;;;;5070709;28;20224;-59
2021/05/21 07:21:03;;;;;;;1.98;0.73;;;19.70;68.90;;;;;;5071672;28;20211;-59
2021/05/21 07:23:30;;;;;;;5.43;1.90;;;19.70;69.00;;;;;;5070881;28;20657;-59
2021/05/21 07:25:56;;;;;;;2.38;0.70;;;19.60;68.70;;;;;;5071933;28;20288;-59
2021/05/21 07:28:24;;;;;;;1.10;0.70;;;19.60;68.90;;;;;;5071897;28;20286;-58
2021/05/21 07:30:50;;;;;;;1.15;0.82;;;19.40;68.80;;;;;;5074432;28;20211;-59
2021/05/21 07:33:16;;;;;;;2.42;0.90;;;19.30;69.50;;;;;;5075404;28;20209;-61
2021/05/21 07:35:43;;;;;;;1.48;0.98;;;19.30;70.00;;;;;;5075036;28;20209;-59
2021/05/21 07:38:10;;;;;;;1.92;0.90;;;19.30;69.90;;;;;;5074299;28;20208;-58
2021/05/21 07:40:36;;;;;;;1.73;1.00;;;19.30;69.40;;;;;;5074249;28;20232;-59
2021/05/21 07:43:03;;;;;;;0.73;0.57;;;19.30;68.60;;;;;;5074401;28;20583;-61
2021/05/21 07:45:29;;;;;;;4.00;1.08;;;19.30;68.00;;;;;;5074390;28;20281;-60
2021/05/21 07:47:55;;;;;;;3.10;0.82;;;19.30;67.90;;;;;;5075008;28;20213;-59
2021/05/21 07:50:21;;;;;;;3.08;0.90;;;19.20;67.70;;;;;;5074777;28;20225;-58
2021/05/21 07:52:47;;;;;;;3.50;1.02;;;19.20;68.00;;;;;;5074489;28;20209;-56
2021/05/21 07:55:15;;;;;;;3.33;1.00;;;19.20;68.00;;;;;;5074530;28;20201;-59
2021/05/21 07:57:41;;;;;;;2.25;0.73;;;19.10;68.00;;;;;;5074674;28;20205;-58
2021/05/21 08:00:09;;;;;;;2.20;0.82;;;18.90;68.10;;;;;;5074788;28;20229;-60
2021/05/21 08:02:36;;;;;;;2.47;0.70;;;18.80;68.20;;;;;;5074523;28;20697;-58
2021/05/21 08:05:04;;;;;;;0.73;0.60;;;18.70;68.10;;;;;;5074039;28;20221;-60
2021/05/21 08:07:30;;;;;;;4.63;0.90;;;18.70;68.60;;;;;;5074756;28;20209;-59
2021/05/21 08:09:56;;;;;;;1.87;1.00;;;18.70;69.10;;;;;;5074469;28;20724;-58
2021/05/21 08:12:23;;;;;;;3.73;1.20;;;18.60;69.30;;;;;;5074703;28;20295;-62
2021/05/21 08:14:49;;;;;;;1.23;0.80;;;18.60;68.90;;;;;;5074118;28;20212;-59
2021/05/21 08:17:16;;;;;;;1.40;0.70;;;18.70;69.10;;;;;;5073956;28;20676;-62
2021/05/21 08:19:42;;;;;;;2.17;0.93;;;18.80;69.30;;;;;;5073997;28;20232;-58
2021/05/21 08:22:09;;;;;;;1.42;0.80;;;18.70;69.30;;;;;;5073949;28;20213;-59
2021/05/21 08:24:35;;;;;;;2.23;0.77;;;18.70;69.20;;;;;;5074107;28;20232;-59
2021/05/21 08:27:01;;;;;;;3.50;0.65;;;18.80;69.30;;;;;;5075093;28;20205;-63
2021/05/21 08:29:28;;;;;;;2.20;0.70;;;18.70;69.70;;;;;;5075276;28;20229;-58
2021/05/21 08:31:54;;;;;;;2.47;0.77;;;18.90;69.50;;;;;;5074857;28;20584;-58
2021/05/21 08:34:21;;;;;;;1.13;0.77;;;19.00;68.30;;;;;;5075111;28;20441;-58
2021/05/21 08:36:47;;;;;;;2.63;0.80;;;19.00;68.40;;;;;;5074985;28;20205;-58
2021/05/21 08:39:14;;;;;;;1.33;0.80;;;19.10;68.40;;;;;;5074451;28;20237;-58
2021/05/21 08:41:44;;;;;;;4.28;0.75;;;19.10;68.20;;;;;;5074241;28;20744;-58
2021/05/21 08:44:11;;;;;;;6.65;1.15;;;19.10;68.50;;;;;;5074356;28;20575;-58
2021/05/21 08:46:38;;;;;;;2.33;0.63;;;19.20;68.40;;;;;;5074242;28;20668;-58
2021/05/21 08:49:05;;;;;;;1.00;0.60;;;19.20;68.10;;;;;;5074272;28;20308;-58
2021/05/21 08:51:31;;;;;;;1.40;0.80;;;19.30;68.30;;;;;;5073855;28;20756;-58
2021/05/21 08:53:58;;;;;;;1.50;0.85;;;19.30;68.40;;;;;;5073908;28;20263;-58
2021/05/21 08:56:24;;;;;;;1.65;0.80;;;19.30;68.70;;;;;;5073782;28;20589;-58
2021/05/21 08:58:51;;;;;;;2.05;0.77;;;19.40;68.80;;;;;;5073425;28;20227;-58
2021/05/21 09:01:18;;;;;;;2.08;0.88;;;19.30;68.50;;;;;;5073654;28;20205;-58
2021/05/21 09:03:48;;;;;;;3.30;1.05;;;19.30;68.70;;;;;;5073586;28;20221;-58
2021/05/21 09:06:19;;;;;;;3.85;1.00;;;19.30;69.00;;;;;;5073997;28;20215;-58
2021/05/21 09:08:47;;;;;;;2.03;1.40;;;19.30;69.30;;;;;;5073430;28;20225;-58
2021/05/21 09:11:28;;;;;;;1.75;1.00;;;19.30;68.70;;;;;;5073818;28;20258;-58
2021/05/21 09:13:59;;;;;;;2.80;0.90;;;19.20;68.60;;;;;;5073247;28;20270;-58
2021/05/21 09:16:26;;;;;;;3.13;0.80;;;19.20;68.60;;;;;;5073575;28;20224;-58
2021/05/21 09:19:11;;;;;;;5.20;1.05;;;19.10;68.50;;;;;;5073362;28;20267;-58
2021/05/21 09:21:53;;;;;;;1.73;0.75;;;19.20;69.10;;;;;;5073895;28;20628;-58
2021/05/21 09:24:22;;;;;;;5.97;1.30;;;19.20;69.20;;;;;;5073313;28;20213;-59
2021/05/21 09:26:51;;;;;;;6.05;1.25;;;19.10;69.40;;;;;;5073529;28;20704;-58
2021/05/21 09:29:31;;;;;;;2.33;1.08;;;19.20;70.00;;;;;;5073283;28;20254;-58
2021/05/21 09:31:57;;;;;;;3.75;0.80;;;19.20;70.20;;;;;;5073840;28;20995;-59
2021/05/21 09:34:30;;;;;;;3.42;1.20;;;19.30;70.20;;;;;;5073198;28;20204;-58
2021/05/21 09:36:57;;;;;;;4.25;0.90;;;19.30;70.40;;;;;;5074369;28;20216;-59
2021/05/21 09:39:23;;;;;;;1.75;0.88;;;19.30;69.40;;;;;;5102065;22;20228;-59
2021/05/21 09:41:52;;;;;;;5.65;1.25;;;19.30;71.60;;;;;;5092348;28;20212;-59
2021/05/21 09:44:19;;;;;;;2.58;1.20;;;19.20;73.10;;;;;;5092274;28;20598;-59
2021/05/21 09:46:48;;;;;;;1.38;0.80;;;19.10;71.50;;;;;;5092632;28;20204;-59
2021/05/21 09:49:31;;;;;;;3.88;1.10;;;19.00;73.30;;;;;;5092109;28;20606;-59
2021/05/21 09:51:58;;;;;;;2.00;0.88;;;19.00;75.30;;;;;;5092588;28;20205;-59
2021/05/21 09:54:25;;;;;;;3.78;0.90;;;19.00;74.70;;;;;;5092671;28;20200;-59
2021/05/21 09:57:02;;;;;;;2.90;0.77;;;19.00;75.50;;;;;;5092289;28;20208;-59
2021/05/21 09:59:42;;;;;;;4.13;0.80;;;19.10;74.30;;;;;;5092029;28;20256;-59
2021/05/21 10:02:27;;;;;;;4.82;0.80;;;19.20;74.40;;;;;;5092414;28;20204;-59
2021/05/21 10:04:55;;;;;;;3.90;1.10;;;19.30;74.50;;;;;;5092054;28;20224;-59
2021/05/21 10:07:22;;;;;;;2.33;1.33;;;19.30;72.60;;;;;;5091649;28;20603;-60
2021/05/21 10:09:49;;;;;;;2.60;0.90;;;19.40;72.90;;;;;;5091673;28;20228;-59
2021/05/21 10:12:15;;;;;;;1.90;0.60;;;19.50;72.90;;;;;;5091640;28;20212;-59
2021/05/21 10:14:48;;;;;;;1.42;1.10;;;19.60;72.30;;;;;;5091761;28;20204;-59
2021/05/21 10:17:18;;;;;;;5.53;1.20;;;19.70;71.30;;;;;;5091939;28;20211;-59
2021/05/21 10:19:46;;;;;;;1.15;0.75;;;19.70;71.50;;;;;;5091503;28;20273;-59
2021/05/21 10:22:16;;;;;;;7.18;1.08;;;19.70;71.10;;;;;;5091991;28;20235;-59
2021/05/21 10:24:44;;;;;;;20.45;1.73;;;19.60;70.90;;;;;;5091496;28;20227;-59
2021/05/21 10:27:16;;;;;;;3.38;1.17;;;19.50;70.10;;;;;;5092195;28;20219;-59
2021/05/21 10:29:49;;;;;;;2.13;0.85;;;19.50;70.00;;;;;;5091528;28;20259;-59
2021/05/21 10:32:17;;;;;;;4.47;1.75;;;19.50;69.70;;;;;;5091728;28;20215;-58
2021/05/21 10:34:47;;;;;;;2.55;0.82;;;19.60;69.00;;;;;;5091728;28;20598;-58
2021/05/21 10:37:26;;;;;;;2.78;0.70;;;19.50;69.40;;;;;;5091744;28;20265;-59
2021/05/21 10:40:09;;;;;;;2.13;1.00;;;19.60;69.60;;;;;;5091503;28;20231;-59
2021/05/21 10:42:37;;;;;;;2.40;0.82;;;19.80;69.50;;;;;;5091606;28;20690;-59
2021/05/21 10:45:22;;;;;;;5.75;0.85;;;19.90;69.30;;;;;;5091146;28;20234;-58
2021/05/21 10:47:58;;;;;;;0.63;0.40;;;19.90;69.30;;;;;;5091530;28;20216;-58
2021/05/21 10:50:33;;;;;;;2.72;0.75;;;19.90;69.00;;;;;;5091223;28;20725;-58
2021/05/21 10:53:03;;;;;;;0.75;0.50;;;20.00;69.30;;;;;;5091565;28;20594;-58
2021/05/21 10:55:43;;;;;;;6.80;1.00;;;20.10;68.90;;;;;;5091928;28;20633;-58
2021/05/21 10:58:16;;;;;;;3.40;1.10;;;20.10;68.70;;;;;;5091270;28;20203;-58
2021/05/21 11:01:11;;;;;;;3.33;1.20;;;20.10;68.90;;;;;;5091624;28;20231;-59
2021/05/21 11:04:01;;;;;;;1.63;0.80;;;20.30;69.00;;;;;;5091341;28;20212;-59
2021/05/21 11:06:29;;;;;;;4.70;1.40;;;20.40;68.70;;;;;;5091428;28;20345;-59
2021/05/21 11:08:59;;;;;;;2.08;0.70;;;20.60;68.90;;;;;;5090952;28;20243;-59
2021/05/21 11:11:58;;;;;;;1.95;0.80;;;20.80;68.60;;;;;;5091382;28;20215;-59
2021/05/21 11:14:43;;;;;;;2.25;0.85;;;21.00;68.30;;;;;;5091053;28;20691;-58
2021/05/21 11:17:12;;;;;;;2.85;0.80;;;21.30;68.70;;;;;;5091736;28;20204;-59
2021/05/21 11:19:44;;;;;;;3.63;1.00;;;21.60;68.70;;;;;;5091154;28;20224;-59
2021/05/21 11:22:32;;;;;;;4.90;0.85;;;21.80;67.60;;;;;;5091598;28;20227;-59
2021/05/21 11:25:01;;;;;;;2.70;0.70;;;21.90;67.10;;;;;;5088654;28;20231;-58
2021/05/21 11:27:28;;;;;;;2.67;0.60;;;22.20;66.80;;;;;;5093907;28;20260;-59
2021/05/21 11:29:55;;;;;;;1.55;0.60;;;22.40;66.30;;;;;;5093022;28;20235;-59
2021/05/21 11:32:24;;;;;;;5.35;1.20;;;22.50;66.10;;;;;;5092614;28;20261;-59
2021/05/21 11:34:51;;;;;;;2.25;1.00;;;22.70;66.10;;;;;;5091548;28;20204;-59
2021/05/21 11:37:22;;;;;;;3.40;0.80;;;22.80;65.60;;;;;;5091364;28;20227;-59
2021/05/21 11:39:51;;;;;;;2.10;0.75;;;22.90;65.20;;;;;;5091883;28;20224;-59
2021/05/21 11:42:19;;;;;;;3.53;2.22;;;22.90;65.00;;;;;;5092330;28;20200;-59
2021/05/21 11:44:47;;;;;;;2.30;0.82;;;23.20;65.00;;;;;;5091954;28;20228;-59
2021/05/21 11:47:21;;;;;;;5.13;1.20;;;23.50;64.40;;;;;;5092180;28;20203;-59
2021/05/21 11:49:48;;;;;;;2.08;0.80;;;23.80;63.30;;;;;;5091397;28;20258;-59
2021/05/21 11:52:16;;;;;;;5.18;1.40;;;24.20;62.40;;;;;;5092458;28;20211;-59
2021/05/21 11:54:42;;;;;;;1.73;0.77;;;24.50;61.40;;;;;;5093700;28;20200;-59
2021/05/21 11:57:13;;;;;;;3.35;1.05;;;24.70;60.30;;;;;;5091746;28;20544;-59
2021/05/21 11:59:40;;;;;;;2.38;0.77;;;24.90;59.60;;;;;;5091363;28;20235;-58
2021/05/21 12:02:06;;;;;;;1.83;0.95;;;24.70;58.20;;;;;;5091658;28;20227;-58
2021/05/21 12:04:34;;;;;;;2.05;0.85;;;24.50;58.60;;;;;;5090917;28;20220;-58
2021/05/21 12:07:00;;;;;;;1.77;0.52;;;24.60;59.10;;;;;;5091431;28;20249;-58
2021/05/21 12:09:27;;;;;;;2.00;0.70;;;24.50;58.60;;;;;;5090992;28;20278;-59
2021/05/21 12:11:55;;;;;;;2.08;0.85;;;24.20;58.80;;;;;;5090857;28;20211;-59
2021/05/21 12:14:23;;;;;;;1.73;0.80;;;23.90;58.50;;;;;;5090561;28;20197;-59
2021/05/21 12:16:53;;;;;;;0.93;0.52;;;23.60;58.10;;;;;;5093696;28;20212;-59
2021/05/21 12:19:20;;;;;;;2.30;0.60;;;23.40;59.00;;;;;;5094248;28;20282;-59
2021/05/21 12:21:48;;;;;;;5.70;0.70;;;23.10;58.90;;;;;;5094546;28;20212;-58
2021/05/21 12:24:18;;;;;;;1.38;0.82;;;22.90;58.70;;;;;;5094459;28;20220;-58
2021/05/21 12:26:45;;;;;;;1.50;0.65;;;22.90;59.40;;;;;;5094154;28;20208;-58
2021/05/21 12:29:13;;;;;;;1.20;0.80;;;22.90;58.70;;;;;;5094036;28;20227;-58
2021/05/21 12:31:44;;;;;;;2.28;0.65;;;22.90;57.30;;;;;;5093910;28;20205;-59
2021/05/21 12:34:15;;;;;;;1.52;0.68;;;22.90;57.40;;;;;;5093971;28;20200;-59
2021/05/21 12:36:41;;;;;;;1.33;0.60;;;22.80;57.50;;;;;;5093903;28;20210;-58
2021/05/21 12:39:09;;;;;;;3.03;0.40;;;22.60;57.20;;;;;;5093832;28;20236;-58
2021/05/21 12:41:37;;;;;;;1.15;0.90;;;22.50;57.90;;;;;;5093837;28;20215;-59
2021/05/21 12:44:11;;;;;;;3.45;1.05;;;22.40;58.00;;;;;;5093803;28;20224;-58
2021/05/21 12:46:47;;;;;;;2.03;1.00;;;22.40;58.30;;;;;;5094251;28;20660;-58
2021/05/21 12:49:17;;;;;;;2.05;0.70;;;22.30;58.20;;;;;;5093967;28;20253;-58